Harrisville, MI (48740)

4:13 AM EDT on July 31, 2016 (GMT -0400)
KMIOSCOD3 | | Change Station

Elev 582 ft 44.51 °N, 83.32 °W | Updated 31 seconds ago

Overcast
Overcast
68.2 °F
Feels Like 68.2 °F
N
8.9
Wind Variable Wind from ENE
Gusts 9.8 mph

Today
High -- | Low -- °F
--% Chance of Precip.
Yesterday
High -- | Low -- °F
Precip. -- in
Pressure 30.03 in
Visibility 10.0 miles
Clouds Scattered Clouds 600 ft
Mostly Cloudy 5500 ft
Overcast 11000 ft
Dew Point 66 °F
Humidity 91%
Rainfall 0.18 in
Snow Depth Not available.
6:19 AM 8:59 PM
Waning Crescent, 8% visible
METAR KOSC 310754Z AUTO 02004KT 10SM SCT006 BKN055 OVC110 18/18 A3003 RMK AO2 T01800175
Pressure 30.03 in
Visibility 10.0 miles
Clouds Scattered Clouds 600 ft
Mostly Cloudy 5500 ft
Overcast 11000 ft
Dew Point 66 °F
Humidity 91%
Rainfall 0.18 in
Snow Depth Not available.
6:19 AM 8:59 PM
Waning Crescent, 8% visible
METAR KOSC 310754Z AUTO 02004KT 10SM SCT006 BKN055 OVC110 18/18 A3003 RMK AO2 T01800175

10-Day Weather Forecast

Almanac

Astronomy

Jul. 31, 2016 Rise Set
Actual Time
Civil Twilight
Nautical Twilight
Astronomical Twilight
Moon
Length of Visible Light
Length of Day
Tomorrow will be .
, % of the Moon is Illuminated

Today's Extremes

State Highs State Lows

Community

WunderPhotos

Upload Photos

1,928,768 photos uploaded!

WunderBlog® & News

Nearby

Air Quality

  Air Quality AQ Index Pollutant
Not available.

Snow Depth

Station Depth Elevation

Earthquake Activity

City Distance Mag. Time & Date
Minimum magnitude displayed is 2.5.

Coastal Water Temperatures

Place Temperature

Stations

Nearby Weather Stations

Station Location Temp. Windchill Dew Point Humidity Wind Precip. Elev Updated Type
                   

Watches & Warnings

There are currently no watches in effect.